Time;durP1;ratioP1;P1;durP2;ratioP2;P2;SDS_P1;SDS_P2;PMS_P1;PMS_P2;Temp;Humidity;BMP_temperature;BMP_pressure;BME280_temperature;BME280_humidity;BME280_pressure;Samples;Min_cycle;Max_cycle;Signal;HPM_P1;HPM_P2
2022/05/27 00:01:35;;;;;;;0.10;0.10;;;14.70;99.90;;;;;;5067612;22;20039;-74
2022/05/27 00:04:04;;;;;;;0.10;0.10;;;14.60;99.90;;;;;;5033401;28;20084;-75
2022/05/27 00:06:30;;;;;;;0.10;0.10;;;14.50;99.90;;;;;;5034437;28;20036;-77
2022/05/27 00:08:56;;;;;;;0.10;0.10;;;14.50;99.90;;;;;;5052368;28;20480;-76
2022/05/27 00:11:23;;;;;;;0.20;0.20;;;14.60;99.90;;;;;;5034645;28;20025;-76
2022/05/27 00:13:49;;;;;;;0.20;0.20;;;14.60;99.90;;;;;;5034367;28;20021;-76
2022/05/27 00:16:16;;;;;;;0.10;0.10;;;14.50;99.90;;;;;;5034329;28;20050;-76
2022/05/27 00:18:42;;;;;;;0.00;0.00;;;14.50;99.90;;;;;;5034255;28;20051;-76
2022/05/27 00:21:09;;;;;;;0.20;0.20;;;14.50;99.90;;;;;;5034278;28;20404;-76
2022/05/27 00:23:36;;;;;;;0.17;0.17;;;14.40;99.90;;;;;;5034410;28;20036;-76
2022/05/27 00:26:02;;;;;;;0.10;0.10;;;14.40;99.90;;;;;;5034398;28;20111;-77
2022/05/27 00:28:28;;;;;;;0.10;0.10;;;14.20;99.90;;;;;;5051835;28;20156;-76
2022/05/27 00:30:54;;;;;;;0.10;0.10;;;14.20;99.90;;;;;;5034282;28;20468;-76
2022/05/27 00:33:20;;;;;;;0.20;0.20;;;14.10;99.90;;;;;;5017801;28;20017;-76
2022/05/27 00:35:45;;;;;;;0.10;0.10;;;14.00;99.90;;;;;;5051937;28;20013;-76
2022/05/27 00:38:12;;;;;;;0.10;0.10;;;14.20;99.90;;;;;;5051608;28;20029;-76
2022/05/27 00:40:45;;;;;;;0.10;0.10;;;14.20;99.90;;;;;;5034007;28;20032;-76
2022/05/27 00:43:11;;;;;;;0.65;0.55;;;14.10;99.90;;;;;;5051891;28;20033;-76
2022/05/27 00:45:40;;;;;;;0.10;0.10;;;14.00;99.90;;;;;;5034036;28;20083;-76
2022/05/27 00:48:11;;;;;;;0.10;0.10;;;14.00;99.90;;;;;;5017379;28;20029;-76
2022/05/27 00:50:40;;;;;;;0.10;0.10;;;13.90;99.90;;;;;;5051981;28;20017;-76
2022/05/27 00:53:09;;;;;;;0.10;0.10;;;14.00;99.90;;;;;;5034020;28;20033;-76
2022/05/27 00:55:41;;;;;;;0.10;0.10;;;14.00;99.90;;;;;;5051901;28;20021;-76
2022/05/27 00:58:15;;;;;;;0.10;0.10;;;13.80;99.90;;;;;;5051696;28;20044;-76
2022/05/27 01:00:40;;;;;;;0.20;0.20;;;13.80;99.90;;;;;;5051811;28;20029;-76
2022/05/27 01:03:09;;;;;;;0.10;0.10;;;13.80;99.90;;;;;;5033803;28;20476;-76
2022/05/27 01:05:34;;;;;;;0.10;0.10;;;14.00;99.90;;;;;;5051547;28;20017;-76
2022/05/27 01:08:05;;;;;;;0.10;0.10;;;14.20;99.90;;;;;;5033493;28;20025;-76
2022/05/27 01:10:43;;;;;;;0.10;0.10;;;14.20;99.90;;;;;;5017455;28;20028;-76
2022/05/27 01:13:15;;;;;;;0.10;0.10;;;14.10;99.90;;;;;;5051658;28;20021;-76
2022/05/27 01:15:40;;;;;;;0.20;0.20;;;14.00;99.90;;;;;;5017533;28;20492;-76
2022/05/27 01:18:22;;;;;;;0.20;0.20;;;14.00;99.90;;;;;;5017173;28;20078;-76
2022/05/27 01:21:09;;;;;;;0.10;0.10;;;14.00;99.90;;;;;;5017462;28;20029;-76
2022/05/27 01:24:08;;;;;;;0.10;0.10;;;13.80;99.90;;;;;;5034040;28;20488;-76
2022/05/27 01:26:53;;;;;;;0.20;0.20;;;13.70;99.90;;;;;;5051385;28;20388;-76
2022/05/27 01:29:40;;;;;;;0.10;0.10;;;13.70;99.90;;;;;;5033696;28;20025;-76
2022/05/27 01:32:50;;;;;;;0.10;0.10;;;13.80;99.90;;;;;;5017094;28;20025;-76
2022/05/27 01:35:28;;;;;;;0.10;0.10;;;13.90;99.90;;;;;;4954346;28;20443;-76
2022/05/27 01:38:29;;;;;;;0.10;0.10;;;13.90;99.90;;;;;;5040654;28;20037;-76
2022/05/27 01:41:03;;;;;;;0.13;0.13;;;13.70;99.90;;;;;;5033570;28;20025;-76
2022/05/27 01:43:48;;;;;;;0.10;0.10;;;13.60;99.90;;;;;;5017005;28;20071;-76
2022/05/27 01:46:18;;;;;;;0.17;0.17;;;13.30;99.90;;;;;;5033558;28;20480;-76
2022/05/27 01:49:04;;;;;;;0.10;0.10;;;13.20;99.90;;;;;;5016802;28;20060;-76
2022/05/27 01:51:38;;;;;;;0.30;0.30;;;13.10;99.90;;;;;;5051364;28;20025;-76
2022/05/27 01:54:26;;;;;;;0.30;0.30;;;13.20;99.90;;;;;;5051301;28;20060;-76
2022/05/27 01:57:01;;;;;;;1.02;0.43;;;13.10;99.90;;;;;;5033208;28;20345;-76
2022/05/27 01:59:32;;;;;;;0.10;0.10;;;13.20;99.90;;;;;;5052502;28;20025;-76
2022/05/27 02:02:08;;;;;;;0.10;0.10;;;13.40;99.90;;;;;;5054718;28;20111;-76
2022/05/27 02:04:43;;;;;;;0.10;0.10;;;13.50;99.90;;;;;;5054834;28;20025;-76
2022/05/27 02:07:19;;;;;;;1.15;1.13;;;13.60;99.90;;;;;;5054341;28;20361;-76
2022/05/27 02:09:50;;;;;;;0.10;0.10;;;13.60;99.90;;;;;;5036968;28;20021;-76
2022/05/27 02:12:54;;;;;;;0.10;0.10;;;13.60;99.90;;;;;;5036813;28;20044;-76
2022/05/27 02:15:28;;;;;;;0.10;0.10;;;13.70;99.90;;;;;;5045154;28;20033;-76
2022/05/27 02:18:04;;;;;;;0.10;0.10;;;13.50;99.90;;;;;;5054437;28;20385;-76
2022/05/27 02:20:42;;;;;;;0.10;0.10;;;13.40;99.90;;;;;;5036632;28;20025;-76
2022/05/27 02:23:17;;;;;;;0.10;0.10;;;13.30;99.90;;;;;;5054354;28;20033;-76
2022/05/27 02:25:45;;;;;;;0.10;0.10;;;13.40;99.90;;;;;;5036435;28;20024;-76
2022/05/27 02:28:19;;;;;;;0.10;0.10;;;13.40;99.90;;;;;;5054166;28;20021;-76
2022/05/27 02:30:50;;;;;;;0.10;0.10;;;13.50;99.90;;;;;;5036541;28;20024;-76
2022/05/27 02:36:10;;;;;;;0.10;0.10;;;13.90;99.90;;;;;;5036271;28;20028;-76
2022/05/27 02:38:36;;;;;;;0.20;0.20;;;14.00;99.90;;;;;;5036059;28;20512;-76
2022/05/27 02:41:25;;;;;;;0.10;0.10;;;13.90;99.90;;;;;;5054068;28;20108;-76
2022/05/27 02:44:27;;;;;;;0.10;0.10;;;13.90;99.90;;;;;;5036421;28;20096;-76
2022/05/27 02:47:12;;;;;;;0.20;0.20;;;13.90;99.90;;;;;;5036182;28;20024;-76
2022/05/27 02:49:54;;;;;;;0.10;0.10;;;13.70;99.90;;;;;;5019762;28;20025;-76
2022/05/27 02:52:37;;;;;;;0.10;0.10;;;13.80;99.90;;;;;;5036193;28;20057;-76
2022/05/27 02:55:14;;;;;;;0.10;0.10;;;13.60;99.90;;;;;;5035874;28;20063;-76
2022/05/27 02:57:49;;;;;;;0.17;0.17;;;13.50;99.90;;;;;;5019281;28;20083;-76
2022/05/27 03:00:21;;;;;;;0.10;0.10;;;13.50;99.90;;;;;;5036042;28;20369;-76
2022/05/27 03:02:48;;;;;;;0.10;0.10;;;13.50;99.90;;;;;;5035743;28;20086;-76
2022/05/27 03:05:18;;;;;;;0.10;0.10;;;13.50;99.90;;;;;;5053391;28;20028;-76
2022/05/27 03:08:14;;;;;;;0.10;0.10;;;13.60;99.90;;;;;;5035498;28;20029;-76
2022/05/27 03:10:57;;;;;;;0.20;0.20;;;13.60;99.90;;;;;;5018050;28;20040;-76
2022/05/27 03:13:41;;;;;;;0.13;0.13;;;13.60;99.90;;;;;;5019186;28;20017;-76
2022/05/27 03:16:12;;;;;;;0.10;0.10;;;13.60;99.90;;;;;;5035812;28;20484;-76
2022/05/27 03:18:47;;;;;;;0.10;0.10;;;13.60;99.90;;;;;;5053174;28;20068;-76
2022/05/27 03:21:56;;;;;;;0.10;0.10;;;13.40;99.90;;;;;;5018823;28;20047;-76
2022/05/27 03:24:33;;;;;;;0.20;0.20;;;13.40;99.90;;;;;;5035635;28;20041;-76
2022/05/27 03:27:43;;;;;;;0.10;0.10;;;13.40;99.90;;;;;;5035318;28;20476;-76
2022/05/27 03:30:25;;;;;;;0.10;0.10;;;13.60;99.90;;;;;;5053219;28;20025;-76
2022/05/27 03:33:25;;;;;;;0.10;0.10;;;13.50;99.90;;;;;;5053403;28;20104;-76
2022/05/27 03:36:12;;;;;;;1.02;0.63;;;13.70;99.90;;;;;;5053152;28;20120;-76
2022/05/27 03:39:05;;;;;;;0.40;0.40;;;13.50;99.90;;;;;;5035021;28;20032;-76
2022/05/27 03:41:37;;;;;;;0.10;0.10;;;13.20;99.90;;;;;;5012623;28;20036;-76
2022/05/27 03:44:05;;;;;;;0.20;0.20;;;13.10;99.90;;;;;;5035154;28;20040;-76
2022/05/27 03:46:35;;;;;;;0.10;0.10;;;13.00;99.90;;;;;;5052686;28;20419;-76
2022/05/27 03:49:01;;;;;;;0.10;0.10;;;13.00;99.90;;;;;;5034879;28;20017;-76
2022/05/27 03:51:30;;;;;;;0.38;0.38;;;13.30;99.90;;;;;;5052876;28;20032;-77
2022/05/27 03:54:05;;;;;;;0.10;0.10;;;13.40;99.90;;;;;;5018357;28;20029;-76
2022/05/27 03:56:39;;;;;;;0.20;0.20;;;13.20;99.90;;;;;;5052592;28;20565;-76
2022/05/27 03:59:07;;;;;;;0.17;0.17;;;13.20;99.90;;;;;;5034725;28;20021;-77
2022/05/27 04:01:35;;;;;;;0.10;0.10;;;13.30;99.90;;;;;;5052478;28;20118;-76
2022/05/27 04:04:03;;;;;;;0.20;0.20;;;13.30;99.90;;;;;;5034737;28;20028;-76
2022/05/27 04:06:30;;;;;;;0.10;0.10;;;13.40;99.90;;;;;;5052188;28;20017;-76
2022/05/27 04:08:57;;;;;;;0.10;0.10;;;13.60;99.90;;;;;;5052437;28;20025;-76
2022/05/27 04:11:23;;;;;;;0.10;0.10;;;13.70;99.90;;;;;;5018083;28;20032;-77
2022/05/27 04:13:49;;;;;;;0.20;0.20;;;13.60;99.90;;;;;;5034546;28;20029;-76
2022/05/27 04:16:15;;;;;;;0.10;0.10;;;13.60;99.90;;;;;;5034723;28;20118;-77
2022/05/27 04:18:41;;;;;;;0.13;0.13;;;13.80;99.90;;;;;;5052187;28;20025;-76
2022/05/27 04:21:07;;;;;;;0.10;0.10;;;13.90;99.90;;;;;;5017937;28;20029;-76
2022/05/27 04:23:33;;;;;;;0.10;0.10;;;13.90;99.90;;;;;;5052025;28;20029;-77
2022/05/27 04:25:58;;;;;;;0.10;0.10;;;13.90;99.90;;;;;;5034296;28;20370;-76
2022/05/27 04:28:24;;;;;;;0.50;0.50;;;13.80;99.90;;;;;;5033953;28;20029;-76
2022/05/27 04:30:50;;;;;;;0.15;0.15;;;13.80;99.90;;;;;;5034325;28;20388;-76
2022/05/27 04:33:16;;;;;;;0.10;0.10;;;13.90;99.90;;;;;;5052110;28;20021;-77
2022/05/27 04:35:42;;;;;;;0.10;0.10;;;14.00;99.90;;;;;;5052234;28;20065;-76
2022/05/27 04:38:08;;;;;;;0.63;0.40;;;14.10;99.90;;;;;;5049925;28;20029;-76
2022/05/27 04:40:35;;;;;;;0.10;0.10;;;14.10;99.90;;;;;;5017480;28;20123;-76
2022/05/27 04:43:02;;;;;;;0.10;0.10;;;14.10;99.90;;;;;;5051981;28;20477;-77
2022/05/27 04:45:29;;;;;;;0.10;0.10;;;14.30;99.90;;;;;;5034304;28;20025;-76
2022/05/27 04:47:55;;;;;;;0.10;0.10;;;14.10;99.90;;;;;;5034076;28;20388;-77
2022/05/27 04:50:21;;;;;;;0.13;0.13;;;14.20;99.90;;;;;;5034022;28;20024;-76
2022/05/27 04:52:47;;;;;;;0.20;0.20;;;14.20;99.90;;;;;;5033404;28;20064;-76
2022/05/27 04:55:15;;;;;;;0.25;0.25;;;14.30;99.90;;;;;;5017776;28;20170;-76
2022/05/27 04:57:46;;;;;;;0.15;0.15;;;14.40;99.90;;;;;;5051462;28;20025;-76
2022/05/27 05:00:22;;;;;;;0.20;0.20;;;14.40;99.90;;;;;;5033957;28;20431;-76
2022/05/27 05:02:54;;;;;;;0.40;0.40;;;14.50;99.90;;;;;;5051259;28;20037;-75
2022/05/27 05:05:23;;;;;;;0.50;0.50;;;14.50;99.90;;;;;;5051422;28;20491;-76
2022/05/27 05:07:58;;;;;;;0.10;0.10;;;14.60;99.90;;;;;;5051644;28;20024;-76
2022/05/27 05:10:25;;;;;;;0.10;0.10;;;14.80;99.90;;;;;;5050435;28;20048;-76
2022/05/27 05:12:51;;;;;;;0.10;0.10;;;14.80;99.90;;;;;;5033512;28;20025;-76
2022/05/27 05:15:19;;;;;;;0.20;0.20;;;14.90;99.90;;;;;;5032281;28;20104;-76
2022/05/27 05:17:44;;;;;;;0.22;0.22;;;14.80;99.90;;;;;;5034870;28;20485;-76
2022/05/27 05:20:13;;;;;;;0.10;0.10;;;14.80;99.90;;;;;;5046981;28;20329;-76
2022/05/27 05:22:39;;;;;;;0.20;0.20;;;14.70;99.90;;;;;;5057333;28;20020;-76
2022/05/27 05:25:06;;;;;;;0.25;0.25;;;14.80;99.90;;;;;;5052444;28;20021;-77
2022/05/27 05:27:34;;;;;;;0.10;0.10;;;14.80;99.90;;;;;;5051349;28;20025;-77
2022/05/27 05:30:00;;;;;;;0.30;0.30;;;14.80;99.90;;;;;;5016315;28;20676;-76
2022/05/27 05:32:27;;;;;;;0.45;0.30;;;14.80;99.90;;;;;;5032759;28;20032;-76
2022/05/27 05:34:54;;;;;;;0.20;0.20;;;14.60;99.90;;;;;;5035413;28;20047;-76
2022/05/27 05:37:20;;;;;;;0.20;0.20;;;14.50;99.90;;;;;;5036615;28;20064;-77
2022/05/27 05:39:46;;;;;;;0.20;0.20;;;14.60;99.90;;;;;;5037484;28;20032;-77
2022/05/27 05:42:12;;;;;;;0.38;0.38;;;14.70;99.90;;;;;;5037263;28;20033;-77
2022/05/27 05:44:38;;;;;;;0.20;0.20;;;14.80;99.90;;;;;;5020945;28;20074;-76
2022/05/27 05:47:06;;;;;;;0.13;0.13;;;14.80;99.90;;;;;;5020534;28;20024;-77
2022/05/27 05:49:32;;;;;;;0.20;0.20;;;14.90;99.90;;;;;;5072111;28;20383;-76
2022/05/27 05:51:59;;;;;;;0.43;0.43;;;15.10;99.90;;;;;;5028467;28;20079;-76
2022/05/27 05:54:27;;;;;;;0.20;0.20;;;15.20;99.90;;;;;;5056792;28;20024;-76
2022/05/27 05:56:53;;;;;;;0.57;0.47;;;15.10;99.90;;;;;;5054876;28;20029;-76
2022/05/27 05:59:20;;;;;;;0.10;0.10;;;15.10;99.90;;;;;;5020591;28;20079;-76
2022/05/27 06:01:46;;;;;;;0.20;0.20;;;15.10;99.90;;;;;;5036391;28;20053;-76
2022/05/27 06:04:12;;;;;;;0.10;0.10;;;15.20;99.90;;;;;;5122960;22;20099;-73
2022/05/27 06:06:39;;;;;;;0.13;0.13;;;15.20;99.90;;;;;;5054278;28;20506;-74
2022/05/27 06:09:06;;;;;;;0.00;0.00;;;15.30;99.90;;;;;;5054737;28;20021;-74
2022/05/27 06:11:33;;;;;;;0.10;0.10;;;15.50;99.90;;;;;;5054479;28;20032;-74
2022/05/27 06:13:59;;;;;;;0.10;0.10;;;15.60;99.90;;;;;;5054297;28;20037;-73
2022/05/27 06:16:24;;;;;;;0.30;0.30;;;15.60;99.90;;;;;;5054200;28;20021;-73
2022/05/27 06:18:50;;;;;;;0.10;0.10;;;15.70;99.90;;;;;;5054036;28;20104;-73
2022/05/27 06:21:16;;;;;;;0.20;0.20;;;15.60;99.90;;;;;;5054128;28;20452;-73
2022/05/27 06:23:42;;;;;;;0.65;0.30;;;15.50;99.90;;;;;;5054640;28;20074;-75
2022/05/27 06:26:10;;;;;;;0.52;0.52;;;15.40;99.90;;;;;;5054230;28;20028;-73
2022/05/27 06:34:23;;;;;;;0.20;0.20;;;15.00;99.90;;;;;;5054211;28;20025;-74
2022/05/27 06:36:56;;;;;;;0.10;0.10;;;15.00;99.90;;;;;;5047317;28;20040;-73
2022/05/27 06:39:23;;;;;;;1.08;0.50;;;15.20;99.90;;;;;;5053290;28;20032;-73
2022/05/27 06:41:50;;;;;;;0.10;0.10;;;15.10;99.90;;;;;;5053841;28;20451;-73
2022/05/27 06:44:17;;;;;;;0.10;0.10;;;15.20;99.90;;;;;;5053936;28;20051;-73
2022/05/27 06:46:43;;;;;;;0.10;0.10;;;15.20;99.90;;;;;;5034650;28;20021;-73
2022/05/27 06:49:09;;;;;;;0.20;0.20;;;15.20;99.90;;;;;;5015745;28;20022;-74
2022/05/27 06:51:37;;;;;;;0.20;0.20;;;15.30;99.90;;;;;;5033732;28;20108;-74
2022/05/27 06:54:05;;;;;;;0.30;0.30;;;15.30;99.90;;;;;;5016066;28;20072;-75
2022/05/27 06:56:35;;;;;;;0.43;0.43;;;15.50;99.90;;;;;;5048806;28;20048;-75
2022/05/27 06:59:02;;;;;;;0.30;0.30;;;15.60;99.90;;;;;;5053677;28;20021;-75
2022/05/27 07:01:27;;;;;;;0.25;0.25;;;15.70;99.90;;;;;;5053386;28;20029;-76
2022/05/27 07:03:53;;;;;;;0.20;0.20;;;15.70;99.90;;;;;;5052617;28;20082;-75
2022/05/27 07:06:19;;;;;;;0.15;0.15;;;15.70;99.90;;;;;;5051930;28;20384;-76
2022/05/27 07:08:45;;;;;;;0.15;0.15;;;16.00;99.90;;;;;;5043700;28;20120;-75
2022/05/27 07:11:11;;;;;;;0.25;0.25;;;16.40;99.90;;;;;;5040132;28;20120;-75
2022/05/27 07:13:36;;;;;;;2.95;1.02;;;16.50;99.90;;;;;;5042331;28;20484;-75
2022/05/27 07:16:04;;;;;;;0.17;0.17;;;16.60;99.90;;;;;;5042261;28;20132;-76
2022/05/27 07:18:31;;;;;;;0.20;0.20;;;16.60;99.90;;;;;;5041773;28;20060;-75
2022/05/27 07:21:05;;;;;;;0.22;0.22;;;16.70;99.90;;;;;;5043120;28;20029;-78
2022/05/27 07:23:32;;;;;;;0.10;0.10;;;17.00;99.90;;;;;;5015244;28;20029;-75
2022/05/27 07:25:58;;;;;;;0.80;0.52;;;17.30;99.90;;;;;;5031545;28;20479;-76
2022/05/27 07:28:24;;;;;;;0.10;0.10;;;17.30;99.90;;;;;;5040835;28;20118;-75
2022/05/27 07:30:51;;;;;;;3.33;0.52;;;17.40;99.90;;;;;;5031195;28;20124;-75
2022/05/27 07:33:17;;;;;;;0.13;0.13;;;17.70;99.90;;;;;;5040620;28;20033;-76
2022/05/27 07:35:43;;;;;;;0.10;0.10;;;17.70;99.90;;;;;;5041335;28;20944;-75
2022/05/27 07:38:09;;;;;;;0.20;0.20;;;17.90;99.90;;;;;;5031950;28;20025;-75
2022/05/27 07:40:35;;;;;;;0.28;0.20;;;17.80;99.90;;;;;;5032467;28;20033;-76
2022/05/27 07:43:00;;;;;;;0.10;0.10;;;17.80;99.90;;;;;;5027123;28;20032;-75
2022/05/27 07:45:51;;;;;;;0.10;0.10;;;18.00;99.90;;;;;;5044901;28;20068;-76
2022/05/27 07:48:19;;;;;;;0.10;0.10;;;18.30;99.90;;;;;;5011601;28;20772;-75
2022/05/27 07:50:45;;;;;;;0.52;0.52;;;18.60;99.90;;;;;;5019838;28;20498;-75
2022/05/27 07:53:12;;;;;;;0.20;0.20;;;18.80;99.90;;;;;;5030999;28;20037;-75
2022/05/27 07:55:38;;;;;;;0.32;0.32;;;18.80;99.90;;;;;;5033383;28;20415;-74
2022/05/27 07:58:04;;;;;;;0.30;0.30;;;18.80;99.90;;;;;;5044051;28;20033;-74
2022/05/27 08:00:33;;;;;;;7.55;3.42;;;18.80;99.90;;;;;;5013475;28;20399;-74
2022/05/27 08:02:59;;;;;;;0.13;0.13;;;19.20;99.90;;;;;;5043652;28;20092;-76
2022/05/27 08:05:28;;;;;;;0.30;0.30;;;19.70;99.90;;;;;;5042610;28;20106;-76
2022/05/27 08:07:57;;;;;;;0.10;0.10;;;19.50;99.70;;;;;;5034402;28;20108;-76
2022/05/27 08:10:32;;;;;;;0.05;0.05;;;19.50;99.80;;;;;;5043540;28;20061;-75
2022/05/27 08:12:58;;;;;;;0.40;0.40;;;19.30;99.90;;;;;;5042769;28;20021;-75
2022/05/27 08:15:25;;;;;;;1.02;0.75;;;19.10;99.60;;;;;;5035108;28;20029;-75
2022/05/27 08:17:51;;;;;;;0.00;0.00;;;18.90;99.80;;;;;;5031392;28;20469;-76
2022/05/27 08:20:20;;;;;;;0.10;0.10;;;18.90;99.90;;;;;;5040739;28;20098;-75
2022/05/27 08:22:47;;;;;;;0.00;0.00;;;19.10;99.90;;;;;;5040344;28;20043;-76
2022/05/27 08:25:13;;;;;;;0.75;0.75;;;19.50;99.90;;;;;;5040758;28;20120;-76
2022/05/27 08:27:39;;;;;;;0.10;0.10;;;19.80;98.80;;;;;;5039466;28;20060;-76
2022/05/27 08:30:07;;;;;;;0.20;0.20;;;19.90;99.10;;;;;;5029971;28;20445;-76
2022/05/27 08:32:33;;;;;;;0.20;0.20;;;20.10;97.90;;;;;;5039716;28;20033;-76
2022/05/27 08:38:03;;;;;;;7.72;0.35;;;20.40;96.90;;;;;;5040134;28;20381;-76
2022/05/27 08:40:55;;;;;;;0.10;0.10;;;20.80;96.80;;;;;;5030370;28;20071;-76
2022/05/27 08:43:30;;;;;;;0.35;0.35;;;20.90;94.30;;;;;;5039866;28;20377;-76
2022/05/27 08:46:10;;;;;;;0.22;0.22;;;20.70;94.40;;;;;;5028839;28;20098;-76
2022/05/27 08:48:40;;;;;;;0.10;0.10;;;21.10;92.50;;;;;;5039832;28;20033;-76
2022/05/27 08:51:22;;;;;;;0.00;0.00;;;20.90;92.00;;;;;;5039718;28;20053;-76
2022/05/27 08:53:50;;;;;;;0.65;0.65;;;20.90;92.50;;;;;;5013063;28;20029;-76
2022/05/27 08:59:31;;;;;;;0.40;0.40;;;20.70;91.70;;;;;;5028522;28;20029;-76
2022/05/27 09:02:32;;;;;;;0.00;0.00;;;21.00;91.40;;;;;;5039795;28;20037;-77
2022/05/27 09:05:16;;;;;;;0.10;0.10;;;21.80;91.30;;;;;;5039418;28;20064;-76
2022/05/27 09:07:53;;;;;;;0.52;0.13;;;22.10;89.90;;;;;;5030503;28;20167;-76
2022/05/27 09:10:23;;;;;;;0.00;0.00;;;21.50;89.40;;;;;;5042801;28;20075;-76
2022/05/27 09:13:18;;;;;;;0.40;0.40;;;21.70;90.10;;;;;;5043935;28;20056;-76
2022/05/27 09:16:04;;;;;;;0.10;0.10;;;22.10;87.80;;;;;;5035246;28;20040;-75
2022/05/27 09:18:53;;;;;;;0.73;0.50;;;22.10;86.90;;;;;;5043058;28;20795;-76
2022/05/27 09:21:43;;;;;;;0.10;0.10;;;22.20;85.20;;;;;;5044079;28;20070;-76
2022/05/27 09:24:33;;;;;;;0.65;0.65;;;21.10;88.20;;;;;;5043440;28;20033;-76
2022/05/27 09:27:01;;;;;;;5.63;0.65;;;21.10;87.80;;;;;;5043527;28;20032;-76
2022/05/27 09:29:52;;;;;;;0.20;0.20;;;21.30;87.20;;;;;;5032701;28;20039;-76
2022/05/27 09:32:27;;;;;;;0.10;0.10;;;21.90;85.70;;;;;;5043482;28;20025;-76
2022/05/27 09:34:55;;;;;;;0.30;0.30;;;22.10;83.50;;;;;;5054679;28;20037;-76
2022/05/27 09:37:34;;;;;;;0.40;0.32;;;22.00;85.30;;;;;;5036713;28;20025;-76
2022/05/27 09:40:05;;;;;;;0.00;0.00;;;22.10;84.30;;;;;;5020464;28;20039;-77
2022/05/27 09:42:37;;;;;;;0.00;0.00;;;22.20;84.90;;;;;;5036811;28;20492;-76
2022/05/27 09:45:03;;;;;;;;;;;22.70;83.20;;;;;;5019514;28;20369;-77
2022/05/27 09:47:32;;;;;;;0.00;0.00;;;22.50;81.00;;;;;;5054650;28;19905;-76
2022/05/27 09:50:04;;;;;;;0.05;0.05;;;22.60;81.20;;;;;;5037191;28;20017;-75
2022/05/27 09:52:36;;;;;;;0.03;0.03;;;23.00;78.50;;;;;;5036626;28;20025;-77
2022/05/27 09:55:17;;;;;;;0.00;0.00;;;23.00;77.10;;;;;;5054947;28;20053;-77
2022/05/27 09:58:14;;;;;;;1.25;0.20;;;23.10;78.70;;;;;;5053977;28;20033;-77
2022/05/27 10:00:49;;;;;;;0.30;0.30;;;23.00;77.30;;;;;;5054619;28;20028;-76
2022/05/27 10:03:27;;;;;;;0.70;0.55;;;23.20;77.30;;;;;;5054041;28;20029;-73
2022/05/27 10:05:57;;;;;;;0.08;0.08;;;23.60;73.60;;;;;;5054244;28;20090;-74
2022/05/27 10:08:43;;;;;;;0.20;0.20;;;23.20;75.90;;;;;;5054148;28;20021;-73
2022/05/27 10:11:12;;;;;;;0.00;0.00;;;23.30;73.30;;;;;;5054273;28;20021;-73
2022/05/27 10:13:41;;;;;;;0.08;0.08;;;23.40;74.60;;;;;;5054091;28;20029;-73
2022/05/27 10:16:11;;;;;;;0.00;0.00;;;23.90;71.80;;;;;;5054006;28;20069;-73
2022/05/27 10:18:39;;;;;;;0.32;0.20;;;24.50;69.20;;;;;;5035803;28;20155;-73
2022/05/27 10:21:10;;;;;;;0.20;0.20;;;24.70;68.20;;;;;;5053478;28;20029;-73
2022/05/27 10:23:40;;;;;;;;;;;24.80;65.20;;;;;;5054387;28;20029;-74
2022/05/27 10:26:21;;;;;;;0.10;0.10;;;25.20;63.70;;;;;;5053906;28;19920;-73
2022/05/27 10:28:59;;;;;;;0.32;0.30;;;25.50;63.20;;;;;;5053813;28;20017;-73
2022/05/27 10:31:28;;;;;;;0.00;0.00;;;24.90;61.20;;;;;;5035914;28;20033;-73
2022/05/27 10:33:54;;;;;;;0.25;0.20;;;25.10;64.00;;;;;;5045042;28;20018;-73
2022/05/27 10:36:29;;;;;;;0.00;0.00;;;25.30;63.50;;;;;;5050860;28;20029;-73
2022/05/27 10:39:03;;;;;;;0.10;0.10;;;24.90;63.40;;;;;;5032504;28;20064;-73
2022/05/27 10:42:25;;;;;;;1.23;1.13;;;25.20;65.40;;;;;;5042089;28;20104;-73
2022/05/27 10:45:15;;;;;;;0.25;0.20;;;24.70;65.30;;;;;;5011602;28;20129;-73
2022/05/27 10:48:12;;;;;;;1.08;0.47;;;25.10;63.60;;;;;;5011368;28;20044;-73
2022/05/27 10:51:07;;;;;;;0.52;0.20;;;25.10;63.20;;;;;;5030770;28;20026;-73
2022/05/27 10:53:59;;;;;;;0.10;0.10;;;24.90;61.50;;;;;;5032216;28;20041;-73
2022/05/27 10:56:28;;;;;;;0.28;0.20;;;25.10;62.20;;;;;;5033238;28;20064;-73
2022/05/27 11:02:34;;;;;;;0.10;0.10;;;25.10;62.60;;;;;;5033126;28;20304;-72
2022/05/27 11:05:31;;;;;;;2.60;2.22;;;24.80;63.80;;;;;;5033112;28;20091;-73
2022/05/27 11:08:18;;;;;;;0.20;0.20;;;24.20;63.80;;;;;;5033043;28;20032;-73
2022/05/27 11:11:13;;;;;;;0.05;0.05;;;24.00;64.10;;;;;;5033240;28;20101;-72
2022/05/27 11:17:14;;;;;;;0.30;0.30;;;23.70;65.00;;;;;;5032947;28;20380;-72
2022/05/27 11:20:04;;;;;;;0.00;0.00;;;24.10;64.10;;;;;;5033107;28;20107;-73
2022/05/27 11:22:36;;;;;;;0.52;0.20;;;24.40;64.70;;;;;;5032920;28;20025;-73
2022/05/27 11:25:06;;;;;;;0.30;0.17;;;24.90;62.70;;;;;;5031534;28;20022;-73
2022/05/27 11:27:49;;;;;;;0.10;0.10;;;25.30;59.80;;;;;;5032526;28;20100;-72
2022/05/27 11:30:34;;;;;;;0.00;0.00;;;25.50;60.40;;;;;;5032912;28;20022;-73
2022/05/27 11:33:15;;;;;;;0.40;0.40;;;25.10;62.80;;;;;;5031211;28;20039;-73
2022/05/27 11:36:09;;;;;;;21.48;0.32;;;25.60;60.80;;;;;;5050608;28;20372;-73
2022/05/27 11:39:06;;;;;;;0.45;0.22;;;25.70;60.60;;;;;;5050155;28;20083;-74
2022/05/27 11:41:57;;;;;;;0.70;0.35;;;25.80;59.70;;;;;;5052096;28;20025;-74
2022/05/27 11:45:08;;;;;;;0.03;0.03;;;25.30;60.50;;;;;;5034629;28;20052;-73
2022/05/27 11:48:08;;;;;;;0.73;0.67;;;25.70;60.50;;;;;;5052518;28;20025;-73
2022/05/27 11:51:08;;;;;;;0.00;0.00;;;25.70;59.70;;;;;;5052254;28;20021;-73
2022/05/27 11:53:39;;;;;;;0.10;0.10;;;25.70;59.50;;;;;;5052395;28;20039;-73
2022/05/27 11:56:17;;;;;;;0.00;0.00;;;25.80;58.80;;;;;;5034538;28;20500;-73
2022/05/27 11:58:55;;;;;;;0.20;0.20;;;25.50;59.30;;;;;;5052013;28;20063;-72
2022/05/27 12:01:37;;;;;;;0.22;0.22;;;25.50;59.30;;;;;;5051887;28;20082;-73
2022/05/27 12:04:21;;;;;;;0.03;0.03;;;25.50;59.10;;;;;;5052240;28;20040;-76
2022/05/27 12:07:22;;;;;;;0.05;0.05;;;25.10;59.80;;;;;;5086965;22;20140;-73
2022/05/27 12:09:55;;;;;;;0.73;0.20;;;25.30;60.90;;;;;;4998654;28;20117;-73
2022/05/27 12:12:25;;;;;;;0.08;0.08;;;25.10;60.00;;;;;;5012302;28;20100;-73
2022/05/27 12:15:01;;;;;;;0.32;0.30;;;25.00;60.00;;;;;;5031696;28;20496;-73
2022/05/27 12:17:42;;;;;;;0.38;0.30;;;25.10;59.80;;;;;;5031694;28;20100;-73
2022/05/27 12:20:11;;;;;;;1.00;0.47;;;25.10;58.70;;;;;;5031629;28;20044;-73
2022/05/27 12:22:37;;;;;;;0.00;0.00;;;25.10;60.50;;;;;;5030053;28;20096;-73
2022/05/27 12:25:20;;;;;;;3.33;1.98;;;25.00;59.80;;;;;;5030948;28;20473;-73
2022/05/27 12:27:47;;;;;;;0.17;0.17;;;24.80;60.70;;;;;;5013526;28;20021;-74
2022/05/27 12:30:16;;;;;;;0.93;0.32;;;24.70;61.10;;;;;;5029620;28;20023;-73
2022/05/27 12:32:45;;;;;;;3.00;1.35;;;24.40;61.20;;;;;;5011424;28;20435;-74
2022/05/27 12:35:32;;;;;;;0.00;0.00;;;24.50;61.30;;;;;;5042804;28;20090;-73
2022/05/27 12:38:16;;;;;;;0.52;0.35;;;24.10;61.50;;;;;;5051320;28;20039;-73
2022/05/27 12:40:53;;;;;;;0.10;0.10;;;24.10;62.00;;;;;;5030428;28;20029;-73
2022/05/27 12:43:28;;;;;;;0.00;0.00;;;24.50;61.00;;;;;;5031483;28;20026;-73
2022/05/27 12:46:01;;;;;;;0.90;0.30;;;24.80;59.80;;;;;;5013378;28;20477;-74
2022/05/27 12:48:31;;;;;;;0.00;0.00;;;24.80;59.60;;;;;;5047070;28;20408;-74
2022/05/27 12:51:04;;;;;;;0.10;0.10;;;24.80;59.30;;;;;;5051046;28;20043;-73
2022/05/27 12:53:44;;;;;;;0.10;0.10;;;24.70;59.80;;;;;;5033368;28;20496;-73
2022/05/27 13:02:14;;;;;;;1.95;0.30;;;24.30;59.70;;;;;;5014059;28;20025;-72
2022/05/27 13:04:50;;;;;;;0.08;0.08;;;24.40;59.60;;;;;;5030588;28;20079;-73
2022/05/27 13:07:36;;;;;;;0.00;0.00;;;24.40;60.10;;;;;;5030265;28;20088;-73
2022/05/27 13:10:16;;;;;;;0.20;0.20;;;24.40;60.60;;;;;;4996794;28;20393;-73
2022/05/27 13:12:46;;;;;;;0.07;0.07;;;24.30;60.20;;;;;;5031207;28;20022;-73
2022/05/27 13:15:32;;;;;;;0.10;0.10;;;24.50;60.80;;;;;;5030938;28;20280;-73
2022/05/27 13:18:18;;;;;;;0.00;0.00;;;24.70;59.90;;;;;;5030328;28;20426;-73
2022/05/27 13:21:02;;;;;;;0.03;0.03;;;24.80;60.60;;;;;;5031356;28;20029;-73
2022/05/27 13:23:31;;;;;;;0.10;0.10;;;25.10;60.10;;;;;;4996677;28;20021;-73
2022/05/27 13:26:11;;;;;;;0.10;0.10;;;25.10;59.40;;;;;;5030296;28;20075;-73
2022/05/27 13:28:46;;;;;;;0.22;0.22;;;24.90;60.30;;;;;;5013056;28;20034;-74
2022/05/27 13:31:14;;;;;;;1.00;0.38;;;24.50;60.10;;;;;;5031322;28;20022;-72
2022/05/27 13:33:52;;;;;;;0.05;0.05;;;24.50;61.20;;;;;;5013638;28;20499;-72
2022/05/27 13:36:24;;;;;;;0.00;0.00;;;24.50;60.80;;;;;;5031152;28;20489;-72
2022/05/27 13:38:57;;;;;;;0.13;0.13;;;24.80;60.40;;;;;;5030367;28;20473;-73
2022/05/27 13:41:26;;;;;;;0.10;0.10;;;24.90;59.50;;;;;;5030833;28;20099;-73
2022/05/27 13:43:53;;;;;;;0.10;0.10;;;25.30;60.00;;;;;;5030884;28;20493;-73
2022/05/27 13:46:32;;;;;;;0.43;0.40;;;25.30;58.90;;;;;;5030620;28;20910;-73
2022/05/27 13:49:05;;;;;;;0.50;0.10;;;25.00;58.80;;;;;;5030784;28;20048;-72
2022/05/27 13:51:42;;;;;;;0.00;0.00;;;24.80;59.40;;;;;;5030457;28;20044;-72